createdAt,value
2019-04-11T00:00:29.480Z,3.92
2019-04-11T00:02:58.336Z,4.85
2019-04-11T00:05:27.078Z,4.87
2019-04-11T00:07:58.062Z,4.28
2019-04-11T00:10:26.654Z,4.62
2019-04-11T00:12:55.557Z,5.25
2019-04-11T00:15:24.553Z,5.12
2019-04-11T00:17:54.379Z,4.00
2019-04-11T00:20:24.246Z,3.80
2019-04-11T00:22:54.148Z,5.03
2019-04-11T00:25:23.197Z,3.87
2019-04-11T00:27:53.055Z,4.45
2019-04-11T00:30:21.992Z,4.28
2019-04-11T00:32:51.827Z,3.77
2019-04-11T00:35:21.659Z,4.03
2019-04-11T00:37:51.398Z,4.50
2019-04-11T00:40:21.549Z,4.40
2019-04-11T00:42:50.689Z,4.15
2019-04-11T00:45:19.547Z,5.05
2019-04-11T00:47:49.063Z,4.10
2019-04-11T00:50:18.993Z,4.85
2019-04-11T00:52:47.871Z,4.05
2019-04-11T00:55:17.571Z,4.87
2019-04-11T00:57:47.380Z,4.03
2019-04-11T01:00:17.045Z,4.80
2019-04-11T01:02:45.861Z,5.22
2019-04-11T01:05:15.152Z,4.97
2019-04-11T01:07:44.125Z,4.30
2019-04-11T01:10:13.941Z,4.17
2019-04-11T01:12:42.987Z,5.60
2019-04-11T01:15:13.784Z,4.50
2019-04-11T01:17:42.633Z,5.10
2019-04-11T01:20:11.643Z,4.15
2019-04-11T01:22:40.608Z,4.12
2019-04-11T01:25:10.483Z,4.67
2019-04-11T01:27:39.958Z,4.95
2019-04-11T01:30:11.871Z,5.00
2019-04-11T01:32:40.737Z,5.30
2019-04-11T01:35:09.614Z,4.10
2019-04-11T01:37:39.846Z,4.53
2019-04-11T01:40:09.841Z,4.95
2019-04-11T01:42:39.631Z,4.47
2019-04-11T01:45:09.717Z,4.00
2019-04-11T01:47:40.267Z,5.08
2019-04-11T01:50:10.730Z,4.87
2019-04-11T01:52:40.363Z,4.65
2019-04-11T01:55:10.206Z,4.70
2019-04-11T01:57:40.180Z,4.80
2019-04-11T02:00:12.329Z,4.03
2019-04-11T02:02:48.915Z,4.25
2019-04-11T02:05:25.516Z,4.37
2019-04-11T02:07:55.271Z,5.00
2019-04-11T02:10:24.454Z,4.97
2019-04-11T02:12:53.384Z,5.12
2019-04-11T02:15:24.087Z,5.20
2019-04-11T02:17:53.017Z,4.97
2019-04-11T02:20:22.948Z,4.37
2019-04-11T02:22:56.910Z,4.35
2019-04-11T02:25:28.240Z,5.08
2019-04-11T02:27:58.276Z,5.17
2019-04-11T02:30:27.929Z,4.50
2019-04-11T02:32:58.331Z,5.12
2019-04-11T02:35:28.766Z,4.75
2019-04-11T02:37:59.258Z,4.08
2019-04-11T02:40:30.136Z,4.33
2019-04-11T02:42:59.437Z,4.87
2019-04-11T02:45:42.642Z,5.10
2019-04-11T02:48:01.409Z,4.85
2019-04-11T02:50:32.037Z,4.62
2019-04-11T02:53:02.705Z,5.47
2019-04-11T02:55:33.532Z,4.80
2019-04-11T02:58:03.980Z,5.20
2019-04-11T03:00:35.470Z,4.55
2019-04-11T03:03:05.736Z,5.47
2019-04-11T03:05:35.186Z,5.35
2019-04-11T03:08:10.670Z,5.95
2019-04-11T03:10:37.701Z,5.45
2019-04-11T03:13:08.255Z,4.78
2019-04-11T03:15:53.888Z,5.62
2019-04-11T03:18:09.861Z,5.75
2019-04-11T03:20:45.723Z,5.75
2019-04-11T03:23:12.375Z,6.28
2019-04-11T03:25:40.662Z,5.80
2019-04-11T03:28:14.108Z,5.58
2019-04-11T03:30:59.220Z,5.47
2019-04-11T03:34:01.318Z,5.80
2019-04-11T03:38:38.439Z,6.30
2019-04-11T03:40:57.696Z,6.03
2019-04-11T03:43:28.143Z,6.42
2019-04-11T03:46:03.787Z,5.75
2019-04-11T03:48:29.099Z,6.53
2019-04-11T03:50:46.599Z,7.50
2019-04-11T03:53:17.334Z,6.85
2019-04-11T03:56:07.678Z,6.70
2019-04-11T03:58:37.328Z,6.15
2019-04-11T04:01:08.519Z,6.92
2019-04-11T04:03:38.705Z,6.55
2019-04-11T04:06:08.990Z,6.55
2019-04-11T04:08:39.123Z,8.48
2019-04-11T04:11:10.220Z,7.50
2019-04-11T04:13:42.702Z,8.00
2019-04-11T04:16:24.413Z,7.37
2019-04-11T04:18:49.348Z,7.80
2019-04-11T04:21:19.948Z,7.45
2019-04-11T04:23:51.674Z,8.48
2019-04-11T04:26:20.745Z,7.83
2019-04-11T04:28:51.179Z,8.15
2019-04-11T04:31:20.309Z,8.48
2019-04-11T04:34:11.340Z,9.15
2019-04-11T04:36:40.756Z,8.50
2019-04-11T04:39:12.470Z,8.68
2019-04-11T04:41:49.514Z,8.50
2019-04-11T04:44:16.958Z,9.50
2019-04-11T04:46:58.667Z,8.33
2019-04-11T04:49:18.526Z,9.13
2019-04-11T04:51:47.750Z,11.30
2019-04-11T04:54:16.864Z,8.55
2019-04-11T04:56:47.308Z,8.93
2019-04-11T04:59:16.369Z,8.70
2019-04-11T05:01:46.375Z,8.90
2019-04-11T05:04:16.246Z,10.15
2019-04-11T05:06:48.168Z,9.43
2019-04-11T05:09:15.569Z,8.55
2019-04-11T05:11:44.686Z,8.78
2019-04-11T05:14:14.531Z,8.55
2019-04-11T05:16:44.199Z,9.78
2019-04-11T05:19:13.175Z,8.73
2019-04-11T05:21:42.028Z,9.08
2019-04-11T05:24:10.907Z,10.32
2019-04-11T05:26:39.782Z,10.30
2019-04-11T05:29:09.080Z,9.20
2019-04-11T05:31:38.750Z,9.68
2019-04-11T05:34:07.782Z,8.75
2019-04-11T05:36:36.783Z,8.60
2019-04-11T05:39:08.686Z,8.93
2019-04-11T05:41:37.777Z,9.83
2019-04-11T05:44:10.429Z,7.83
2019-04-11T05:46:49.138Z,9.68
2019-04-11T05:49:15.039Z,9.48
2019-04-11T05:51:47.527Z,9.08
2019-04-11T05:54:16.424Z,10.53
2019-04-11T05:56:48.705Z,9.30
2019-04-11T05:59:18.894Z,10.03
2019-04-11T06:01:53.027Z,9.40
2019-04-11T06:04:28.479Z,9.88
2019-04-11T06:07:07.903Z,9.75
2019-04-11T06:09:38.232Z,8.55
2019-04-11T06:12:23.755Z,8.25
2019-04-11T06:14:59.980Z,8.58
2019-04-11T06:17:28.842Z,8.58
2019-04-11T06:20:12.523Z,8.40
2019-04-11T06:22:43.173Z,8.63
2019-04-11T06:25:28.035Z,8.45
2019-04-11T06:28:02.044Z,7.70
2019-04-11T06:30:35.323Z,7.15
2019-04-11T06:33:12.299Z,7.72
2019-04-11T06:36:00.165Z,9.60
2019-04-11T06:38:47.105Z,7.70
2019-04-11T06:41:36.858Z,8.28
2019-04-11T06:44:07.411Z,8.05
2019-04-11T06:46:57.443Z,7.80
2019-04-11T06:49:42.711Z,7.83
2019-04-11T06:52:16.753Z,7.67
2019-04-11T06:54:59.371Z,7.90
2019-04-11T06:57:36.242Z,7.58
2019-04-11T07:00:12.537Z,7.72
2019-04-11T07:02:44.472Z,9.20
2019-04-11T07:05:16.103Z,7.60
2019-04-11T07:07:49.686Z,7.40
2019-04-11T07:10:20.302Z,8.00
2019-04-11T07:12:57.616Z,8.65
2019-04-11T07:15:32.411Z,8.25
2019-04-11T07:18:20.505Z,8.65
2019-04-11T07:20:56.712Z,7.95
2019-04-11T07:23:44.565Z,8.90
2019-04-11T07:26:18.900Z,7.33
2019-04-11T07:28:56.444Z,6.85
2019-04-11T07:31:42.144Z,8.10
2019-04-11T07:34:24.817Z,8.08
2019-04-11T07:37:12.643Z,8.08
2019-04-11T07:40:00.774Z,7.40
2019-04-11T07:42:41.132Z,6.53
2019-04-11T07:45:25.310Z,7.25
2019-04-11T07:48:02.826Z,8.15
2019-04-11T07:50:33.093Z,7.70
2019-04-11T07:53:04.883Z,8.45
2019-04-11T07:55:34.484Z,7.55
2019-04-11T07:58:23.957Z,7.45
2019-04-11T08:00:57.695Z,7.08
2019-04-11T08:03:40.041Z,7.22
2019-04-11T08:06:13.386Z,7.03
2019-04-11T08:08:49.448Z,7.80
2019-04-11T08:11:21.523Z,7.45
2019-04-11T08:17:01.658Z,6.85
2019-04-11T08:19:43.915Z,7.30
2019-04-11T08:22:30.818Z,7.10
2019-04-11T08:25:01.427Z,6.72
2019-04-11T08:27:31.749Z,7.50
2019-04-11T08:30:02.700Z,6.55
2019-04-11T08:32:40.038Z,6.75
2019-04-11T08:35:28.330Z,7.97
2019-04-11T08:38:04.665Z,6.95
2019-04-11T08:40:47.203Z,7.20
2019-04-11T08:43:23.417Z,7.17
2019-04-11T08:45:54.124Z,8.93
2019-04-11T08:48:24.675Z,7.05
2019-04-11T08:50:55.197Z,6.70
2019-04-11T08:53:26.760Z,7.83
2019-04-11T08:55:59.404Z,7.80
2019-04-11T08:58:30.851Z,8.13
2019-04-11T09:01:01.581Z,7.75
2019-04-11T09:04:00.852Z,8.40
2019-04-11T09:06:22.917Z,7.70
2019-04-11T09:09:09.556Z,7.95
2019-04-11T09:11:43.240Z,7.75
2019-04-11T09:14:16.747Z,8.18
2019-04-11T09:16:59.245Z,6.78
2019-04-11T09:20:23.346Z,7.50
2019-04-11T09:22:53.669Z,7.07
2019-04-11T09:25:37.034Z,7.90
2019-04-11T09:28:17.525Z,7.35
2019-04-11T09:31:07.560Z,7.30
2019-04-11T09:33:53.157Z,8.15
2019-04-11T09:36:42.234Z,8.18
2019-04-11T09:39:19.252Z,7.58
2019-04-11T09:41:58.749Z,7.70
2019-04-11T09:44:28.991Z,8.20
2019-04-11T09:47:15.621Z,7.43
2019-04-11T09:49:45.758Z,8.63
2019-04-11T09:52:16.298Z,7.57
2019-04-11T09:54:46.492Z,6.90
2019-04-11T09:57:22.819Z,8.10
2019-04-11T09:59:56.054Z,8.33
2019-04-11T10:02:27.467Z,8.17
2019-04-11T10:04:59.910Z,8.07
2019-04-11T10:07:44.346Z,8.07
2019-04-11T10:10:29.742Z,8.80
2019-04-11T10:13:06.719Z,8.70
2019-04-11T10:15:43.227Z,7.83
2019-04-11T10:18:27.984Z,8.50
2019-04-11T10:20:53.549Z,7.23
2019-04-11T10:23:41.514Z,8.07
2019-04-11T10:26:31.951Z,7.90
2019-04-11T10:29:08.674Z,7.20
2019-04-11T10:31:38.944Z,7.13
2019-04-11T10:34:13.197Z,8.50
2019-04-11T10:36:43.550Z,8.37
2019-04-11T10:39:30.358Z,6.93
2019-04-11T10:42:04.294Z,9.30
2019-04-11T10:44:40.680Z,7.33
2019-04-11T10:47:14.510Z,7.00
2019-04-11T10:50:00.914Z,8.27
2019-04-11T10:52:34.238Z,9.20
2019-04-11T10:55:05.183Z,8.43
2019-04-11T10:57:36.163Z,7.60
2019-04-11T11:00:15.576Z,7.90
2019-04-11T11:03:02.208Z,9.80
2019-04-11T11:05:35.136Z,9.57
2019-04-11T11:08:05.369Z,9.63
2019-04-11T11:10:38.249Z,9.20
2019-04-11T11:13:14.181Z,10.30
2019-04-11T11:15:44.287Z,9.97
2019-04-11T11:18:38.181Z,9.83
2019-04-11T11:20:55.012Z,10.30
2019-04-11T11:23:37.318Z,9.80
2019-04-11T11:26:10.331Z,10.47
2019-04-11T11:28:41.056Z,11.13
2019-04-11T11:31:14.176Z,10.73
2019-04-11T11:33:44.906Z,11.50
2019-04-11T11:36:15.267Z,11.77
2019-04-11T11:38:48.141Z,11.47
2019-04-11T11:41:33.246Z,14.80
2019-04-11T11:44:01.749Z,10.67
2019-04-11T11:46:34.601Z,8.80
2019-04-11T11:49:05.927Z,9.30
2019-04-11T11:51:37.362Z,9.20
2019-04-11T11:54:13.757Z,9.87
2019-04-11T11:56:47.261Z,8.40
2019-04-11T11:59:34.391Z,8.20
2019-04-11T12:02:04.943Z,8.07
2019-04-11T12:04:36.417Z,7.40
2019-04-11T12:07:07.542Z,7.53
2019-04-11T12:09:48.885Z,7.27
2019-04-11T12:15:15.953Z,7.73
2019-04-11T12:18:01.547Z,7.70
2019-04-11T12:23:15.087Z,8.13
2019-04-11T12:25:45.305Z,8.73
2019-04-11T12:28:25.559Z,8.67
2019-04-11T12:31:00.585Z,8.73
2019-04-11T12:33:43.746Z,8.33
2019-04-11T12:36:14.649Z,7.67
2019-04-11T12:39:00.891Z,6.63
2019-04-11T12:41:31.117Z,8.33
2019-04-11T12:44:07.034Z,7.57
2019-04-11T12:46:43.224Z,8.63
2019-04-11T12:49:22.257Z,10.83
2019-04-11T12:52:08.444Z,7.10
2019-04-11T12:54:38.572Z,7.10
2019-04-11T12:57:25.078Z,7.63
2019-04-11T13:00:07.343Z,7.00
2019-04-11T13:02:53.632Z,7.37
2019-04-11T13:05:23.844Z,7.67
2019-04-11T13:08:09.950Z,6.90
2019-04-11T13:10:40.524Z,7.73
2019-04-11T13:13:27.113Z,7.20
2019-04-11T13:16:11.078Z,8.00
2019-04-11T13:18:49.406Z,7.10
2019-04-11T13:21:19.535Z,8.00
2019-04-11T13:23:58.436Z,6.43
2019-04-11T13:26:44.628Z,7.67
2019-04-11T13:29:14.794Z,6.23
2019-04-11T13:31:47.368Z,7.40
2019-04-11T13:34:17.653Z,7.70
2019-04-11T13:39:51.381Z,7.97
2019-04-11T13:42:36.671Z,7.30
2019-04-11T13:45:10.028Z,6.90
2019-04-11T13:47:55.955Z,6.70
2019-04-11T13:50:24.673Z,7.10
2019-04-11T13:53:03.692Z,7.30
2019-04-11T13:55:32.226Z,6.67
2019-04-11T13:58:05.397Z,7.20
2019-04-11T14:00:35.659Z,6.13
2019-04-11T14:03:14.958Z,6.93
2019-04-11T14:05:44.976Z,6.43
2019-04-11T14:08:24.381Z,6.50
2019-04-11T14:10:54.585Z,7.40
2019-04-11T14:13:24.771Z,6.67
2019-04-11T14:15:57.914Z,6.90
2019-04-11T14:18:31.054Z,6.43
2019-04-11T14:21:14.367Z,6.50
2019-04-11T14:23:54.729Z,7.70
2019-04-11T14:26:40.457Z,5.80
2019-04-11T14:29:13.345Z,6.23
2019-04-11T14:31:43.659Z,6.57
2019-04-11T14:34:32.409Z,7.13
2019-04-11T14:37:08.177Z,5.77
2019-04-11T14:39:38.967Z,6.93
2019-04-11T14:42:25.426Z,6.83
2019-04-11T14:44:55.691Z,6.03
2019-04-11T14:47:25.890Z,6.70
2019-04-11T14:49:58.612Z,5.83
2019-04-11T14:52:31.974Z,6.30
2019-04-11T14:55:00.582Z,6.10
2019-04-11T14:57:33.436Z,5.27
2019-04-11T15:00:03.607Z,6.10
2019-04-11T15:02:49.844Z,6.80
2019-04-11T15:05:22.830Z,6.40
2019-04-11T15:07:51.608Z,5.93
2019-04-11T15:10:21.833Z,6.30
2019-04-11T15:12:51.103Z,6.37
2019-04-11T15:15:29.996Z,5.50
2019-04-11T15:18:00.428Z,5.70
2019-04-11T15:20:41.165Z,6.53
2019-04-11T15:23:11.448Z,7.50
2019-04-11T15:25:41.728Z,6.43
2019-04-11T15:28:12.608Z,6.53
2019-04-11T15:30:57.958Z,6.67
2019-04-11T15:33:33.681Z,5.77
2019-04-11T15:36:03.912Z,5.87
2019-04-11T15:38:39.959Z,5.63
2019-04-11T15:41:09.068Z,5.30
2019-04-11T15:43:55.077Z,5.40
2019-04-11T15:46:25.456Z,5.57
2019-04-11T15:48:55.742Z,5.43
2019-04-11T15:51:31.480Z,5.00
2019-04-11T15:54:04.703Z,5.60
2019-04-11T15:56:54.390Z,4.20
2019-04-11T15:59:43.710Z,4.90
2019-04-11T16:05:03.635Z,6.63
2019-04-11T16:07:52.383Z,5.50
2019-04-11T16:10:22.654Z,6.13
2019-04-11T16:13:01.839Z,5.70
2019-04-11T16:15:34.806Z,5.57
2019-04-11T16:18:19.656Z,5.73
2019-04-11T16:20:51.579Z,4.40
2019-04-11T16:23:25.918Z,5.60
2019-04-11T16:25:52.767Z,4.80
2019-04-11T16:28:39.268Z,6.43
2019-04-11T16:31:09.820Z,5.47
2019-04-11T16:33:48.819Z,5.87
2019-04-11T16:36:19.257Z,9.10
2019-04-11T16:39:05.721Z,6.95
2019-04-11T16:41:53.901Z,5.53
2019-04-11T16:44:33.112Z,5.30
2019-04-11T16:47:18.188Z,4.87
2019-04-11T16:49:46.665Z,5.80
2019-04-11T16:52:15.449Z,6.45
2019-04-11T16:54:44.273Z,5.80
2019-04-11T16:57:13.821Z,7.15
2019-04-11T16:59:43.075Z,8.20
2019-04-11T17:02:11.956Z,6.90
2019-04-11T17:04:40.851Z,5.67
2019-04-11T17:07:16.824Z,7.75
2019-04-11T17:09:47.233Z,6.20
2019-04-11T17:12:16.025Z,6.30
2019-04-11T17:14:44.865Z,6.53
2019-04-11T17:17:15.265Z,6.05
2019-04-11T17:19:44.263Z,5.05
2019-04-11T17:22:13.124Z,6.10
2019-04-11T17:24:41.948Z,5.17
2019-04-11T17:27:11.021Z,5.25
2019-04-11T17:29:39.787Z,5.08
2019-04-11T17:32:08.601Z,5.17
2019-04-11T17:34:37.356Z,5.12
2019-04-11T17:37:06.199Z,5.58
2019-04-11T17:39:36.836Z,5.95
2019-04-11T17:42:05.474Z,5.65
2019-04-11T17:44:34.802Z,6.67
2019-04-11T17:47:03.713Z,5.33
2019-04-11T17:49:32.760Z,5.90
2019-04-11T17:52:04.870Z,6.00
2019-04-11T17:54:32.406Z,6.83
2019-04-11T17:57:01.234Z,7.60
2019-04-11T17:59:30.154Z,6.45
2019-04-11T18:01:58.969Z,6.70
2019-04-11T18:04:27.848Z,10.30
2019-04-11T18:06:56.608Z,6.70
2019-04-11T18:09:26.304Z,5.17
2019-04-11T18:11:56.146Z,6.15
2019-04-11T18:14:25.679Z,7.10
2019-04-11T18:16:55.396Z,6.83
2019-04-11T18:19:24.408Z,8.15
2019-04-11T18:21:53.218Z,6.55
2019-04-11T18:24:22.060Z,13.00
2019-04-11T18:26:51.942Z,10.80
2019-04-11T18:29:23.037Z,6.45
2019-04-11T18:31:51.912Z,8.50
2019-04-11T18:34:20.914Z,7.20
2019-04-11T18:36:49.793Z,7.35
2019-04-11T18:39:18.796Z,7.08
2019-04-11T18:41:47.593Z,6.25
2019-04-11T18:44:18.225Z,6.37
2019-04-11T18:46:47.034Z,5.65
2019-04-11T18:49:15.894Z,6.67
2019-04-11T18:51:44.727Z,7.40
2019-04-11T18:54:13.537Z,7.40
2019-04-11T18:56:42.437Z,6.22
2019-04-11T18:59:11.302Z,5.40
2019-04-11T19:01:40.210Z,5.95
2019-04-11T19:04:11.728Z,5.70
2019-04-11T19:06:42.845Z,6.40
2019-04-11T19:09:14.109Z,6.70
2019-04-11T19:11:43.886Z,6.15
2019-04-11T19:14:15.803Z,6.30
2019-04-11T19:16:45.753Z,6.30
2019-04-11T19:19:18.019Z,6.22
2019-04-11T19:21:44.095Z,7.03
2019-04-11T19:24:13.063Z,6.33
2019-04-11T19:26:45.932Z,5.75
2019-04-11T19:29:11.779Z,5.65
2019-04-11T19:31:41.106Z,6.22
2019-04-11T19:34:09.741Z,5.28
2019-04-11T19:36:39.863Z,4.80
2019-04-11T19:39:13.393Z,5.00
2019-04-11T19:41:39.274Z,4.53
2019-04-11T19:44:07.737Z,4.95
2019-04-11T19:46:36.451Z,4.75
2019-04-11T19:49:05.020Z,5.30
2019-04-11T19:51:33.545Z,4.65
2019-04-11T19:54:03.288Z,5.30
2019-04-11T19:56:39.669Z,4.70
2019-04-11T19:59:08.248Z,5.12
2019-04-11T20:01:36.699Z,5.15
2019-04-11T20:04:06.766Z,4.70
2019-04-11T20:06:35.620Z,4.40
2019-04-11T20:09:06.465Z,5.03
2019-04-11T20:11:35.002Z,4.35
2019-04-11T20:14:03.518Z,5.75
2019-04-11T20:16:41.059Z,4.85
2019-04-11T20:19:02.582Z,5.30
2019-04-11T20:21:31.149Z,4.87
2019-04-11T20:23:59.700Z,4.97
2019-04-11T20:26:28.544Z,5.37
2019-04-11T20:29:16.382Z,5.45
2019-04-11T20:31:44.911Z,4.97
2019-04-11T20:34:13.418Z,5.75
2019-04-11T20:36:42.223Z,4.47
2019-04-11T20:39:30.107Z,4.60
2019-04-11T20:41:58.622Z,4.83
2019-04-11T20:44:28.099Z,5.90
2019-04-11T20:47:00.136Z,6.75
2019-04-11T20:49:27.000Z,7.83
2019-04-11T20:51:55.487Z,8.75
2019-04-11T20:54:23.922Z,4.60
2019-04-11T20:56:52.522Z,4.92
2019-04-11T20:59:21.270Z,5.50
2019-04-11T21:01:49.847Z,5.05
2019-04-11T21:04:18.407Z,4.40
2019-04-11T21:06:46.866Z,4.28
2019-04-11T21:09:15.606Z,4.22
2019-04-11T21:11:44.061Z,3.65
2019-04-11T21:14:12.594Z,4.85
2019-04-11T21:16:41.400Z,4.60
2019-04-11T21:19:10.236Z,4.40
2019-04-11T21:21:38.727Z,4.40
2019-04-11T21:24:07.320Z,4.70
2019-04-11T21:26:36.137Z,3.58
2019-04-11T21:29:04.690Z,3.87
2019-04-11T21:31:33.460Z,3.50
2019-04-11T21:34:02.910Z,3.58
2019-04-11T21:36:32.208Z,3.33
2019-04-11T21:39:03.590Z,4.00
2019-04-11T21:41:31.438Z,3.85
2019-04-11T21:43:59.971Z,3.80
2019-04-11T21:46:31.424Z,4.45
2019-04-11T21:48:58.919Z,3.75
2019-04-11T21:51:27.445Z,4.10
2019-04-11T21:53:55.969Z,3.65
2019-04-11T21:56:24.411Z,3.40
2019-04-11T21:58:52.891Z,3.40
2019-04-11T22:01:21.963Z,3.60
2019-04-11T22:03:54.750Z,4.20
2019-04-11T22:06:22.495Z,3.50
2019-04-11T22:08:51.281Z,3.75
2019-04-11T22:11:19.714Z,3.50
2019-04-11T22:13:48.583Z,3.65
2019-04-11T22:16:17.352Z,3.00
2019-04-11T22:18:45.904Z,4.45
2019-04-11T22:21:15.606Z,3.40
2019-04-11T22:23:49.030Z,3.40
2019-04-11T22:26:15.265Z,3.47
2019-04-11T22:28:43.835Z,3.33
2019-04-11T22:31:12.320Z,3.80
2019-04-11T22:33:42.784Z,3.30
2019-04-11T22:36:11.365Z,2.47
2019-04-11T22:38:39.811Z,2.60
2019-04-11T22:41:08.355Z,3.10
2019-04-11T22:43:38.121Z,2.72
2019-04-11T22:46:08.021Z,2.77
2019-04-11T22:48:39.079Z,2.60
2019-04-11T22:51:08.888Z,3.20
2019-04-11T22:53:37.682Z,3.25
2019-04-11T22:59:16.749Z,2.85
2019-04-11T23:01:47.076Z,2.67
2019-04-11T23:04:17.140Z,2.40
2019-04-11T23:06:47.216Z,2.80
2019-04-11T23:09:16.694Z,2.22
2019-04-11T23:11:46.469Z,3.12
2019-04-11T23:14:15.903Z,2.62
2019-04-11T23:16:44.953Z,3.40
2019-04-11T23:19:14.300Z,2.42
2019-04-11T23:21:42.951Z,2.60
2019-04-11T23:24:12.357Z,2.85
2019-04-11T23:26:41.302Z,2.70
2019-04-11T23:29:09.750Z,2.60
2019-04-11T23:31:38.278Z,2.83
2019-04-11T23:34:07.154Z,2.50
2019-04-11T23:36:35.683Z,2.30
2019-04-11T23:39:05.698Z,2.45
2019-04-11T23:41:34.545Z,2.47
2019-04-11T23:44:03.314Z,2.85
2019-04-11T23:46:31.777Z,2.72
2019-04-11T23:49:00.198Z,2.70
2019-04-11T23:51:28.754Z,2.20
2019-04-11T23:53:59.761Z,3.08
2019-04-11T23:56:28.147Z,2.67
2019-04-11T23:59:01.766Z,2.67
